sensor_id;sensor_type;location;lat;lon;timestamp;temperature;humidity
42907;DHT22;28552;51.146;6.576;2023-07-28T00:01:42;17.30;99.90
42907;DHT22;28552;51.146;6.576;2023-07-28T00:04:43;17.30;99.90
42907;DHT22;28552;51.146;6.576;2023-07-28T00:07:43;17.30;99.90
42907;DHT22;28552;51.146;6.576;2023-07-28T00:10:44;17.30;99.90
42907;DHT22;28552;51.146;6.576;2023-07-28T00:13:44;17.30;99.90
42907;DHT22;28552;51.146;6.576;2023-07-28T00:16:45;17.40;99.90
42907;DHT22;28552;51.146;6.576;2023-07-28T00:19:45;17.40;99.90
42907;DHT22;28552;51.146;6.576;2023-07-28T00:22:46;17.40;99.90
42907;DHT22;28552;51.146;6.576;2023-07-28T00:25:46;17.40;99.90
42907;DHT22;28552;51.146;6.576;2023-07-28T00:28:47;17.40;99.90
42907;DHT22;28552;51.146;6.576;2023-07-28T00:31:47;17.40;99.90
42907;DHT22;28552;51.146;6.576;2023-07-28T00:34:48;17.40;99.90
42907;DHT22;28552;51.146;6.576;2023-07-28T00:37:48;17.40;99.90
42907;DHT22;28552;51.146;6.576;2023-07-28T00:40:49;17.40;99.90
42907;DHT22;28552;51.146;6.576;2023-07-28T00:43:49;17.30;99.90
42907;DHT22;28552;51.146;6.576;2023-07-28T00:46:50;17.30;99.90
42907;DHT22;28552;51.146;6.576;2023-07-28T00:49:51;17.30;99.90
42907;DHT22;28552;51.146;6.576;2023-07-28T00:52:51;17.30;99.90
42907;DHT22;28552;51.146;6.576;2023-07-28T00:55:52;17.30;99.90
42907;DHT22;28552;51.146;6.576;2023-07-28T00:58:53;17.30;99.90
42907;DHT22;28552;51.146;6.576;2023-07-28T01:01:53;17.30;99.90
42907;DHT22;28552;51.146;6.576;2023-07-28T01:04:54;17.30;99.90
42907;DHT22;28552;51.146;6.576;2023-07-28T01:08:02;17.20;99.90
42907;DHT22;28552;51.146;6.576;2023-07-28T01:11:06;17.20;99.90
42907;DHT22;28552;51.146;6.576;2023-07-28T01:14:07;17.20;99.90
42907;DHT22;28552;51.146;6.576;2023-07-28T01:17:07;17.20;99.90
42907;DHT22;28552;51.146;6.576;2023-07-28T01:20:08;17.20;99.90
42907;DHT22;28552;51.146;6.576;2023-07-28T01:23:32;17.20;99.90
42907;DHT22;28552;51.146;6.576;2023-07-28T01:26:36;17.20;99.90
42907;DHT22;28552;51.146;6.576;2023-07-28T01:29:37;17.20;99.90
42907;DHT22;28552;51.146;6.576;2023-07-28T01:32:37;17.20;99.90
42907;DHT22;28552;51.146;6.576;2023-07-28T01:35:38;17.20;99.90
42907;DHT22;28552;51.146;6.576;2023-07-28T01:38:39;17.20;99.90
42907;DHT22;28552;51.146;6.576;2023-07-28T01:41:40;17.20;99.90
42907;DHT22;28552;51.146;6.576;2023-07-28T01:44:43;17.20;99.90
42907;DHT22;28552;51.146;6.576;2023-07-28T01:47:44;17.20;99.90
42907;DHT22;28552;51.146;6.576;2023-07-28T01:50:44;17.10;99.90
42907;DHT22;28552;51.146;6.576;2023-07-28T01:53:45;17.20;99.90
42907;DHT22;28552;51.146;6.576;2023-07-28T01:56:46;17.20;99.90
42907;DHT22;28552;51.146;6.576;2023-07-28T01:59:46;17.20;99.90
42907;DHT22;28552;51.146;6.576;2023-07-28T02:02:47;17.20;99.90
42907;DHT22;28552;51.146;6.576;2023-07-28T02:05:48;17.20;99.90
42907;DHT22;28552;51.146;6.576;2023-07-28T02:08:49;17.20;99.90
42907;DHT22;28552;51.146;6.576;2023-07-28T02:11:49;17.20;99.90
42907;DHT22;28552;51.146;6.576;2023-07-28T02:14:51;17.20;99.90
42907;DHT22;28552;51.146;6.576;2023-07-28T02:17:51;17.20;99.90
42907;DHT22;28552;51.146;6.576;2023-07-28T02:20:52;17.20;99.90
42907;DHT22;28552;51.146;6.576;2023-07-28T02:23:52;17.20;99.90
42907;DHT22;28552;51.146;6.576;2023-07-28T02:26:53;17.20;99.90
42907;DHT22;28552;51.146;6.576;2023-07-28T02:29:55;17.20;99.90
42907;DHT22;28552;51.146;6.576;2023-07-28T02:32:55;17.20;99.90
42907;DHT22;28552;51.146;6.576;2023-07-28T02:35:56;17.10;99.90
42907;DHT22;28552;51.146;6.576;2023-07-28T02:38:57;17.20;99.90
42907;DHT22;28552;51.146;6.576;2023-07-28T02:41:57;17.20;99.90
42907;DHT22;28552;51.146;6.576;2023-07-28T02:44:58;17.20;99.90
42907;DHT22;28552;51.146;6.576;2023-07-28T02:47:58;17.20;99.90
42907;DHT22;28552;51.146;6.576;2023-07-28T02:50:59;17.20;99.90
42907;DHT22;28552;51.146;6.576;2023-07-28T02:54:00;17.20;99.90
42907;DHT22;28552;51.146;6.576;2023-07-28T02:57:01;17.20;99.90
42907;DHT22;28552;51.146;6.576;2023-07-28T03:00:01;17.20;99.90
42907;DHT22;28552;51.146;6.576;2023-07-28T03:03:03;17.20;99.90
42907;DHT22;28552;51.146;6.576;2023-07-28T03:06:03;17.20;99.90
42907;DHT22;28552;51.146;6.576;2023-07-28T03:09:04;17.20;99.90
42907;DHT22;28552;51.146;6.576;2023-07-28T03:12:05;17.20;99.90
42907;DHT22;28552;51.146;6.576;2023-07-28T03:15:07;17.20;99.90
42907;DHT22;28552;51.146;6.576;2023-07-28T03:18:07;17.30;99.90
42907;DHT22;28552;51.146;6.576;2023-07-28T03:21:09;17.30;99.90
42907;DHT22;28552;51.146;6.576;2023-07-28T03:24:09;17.30;99.90
42907;DHT22;28552;51.146;6.576;2023-07-28T03:27:10;17.30;99.90
42907;DHT22;28552;51.146;6.576;2023-07-28T03:30:11;17.30;99.90
42907;DHT22;28552;51.146;6.576;2023-07-28T03:33:11;17.30;99.90
42907;DHT22;28552;51.146;6.576;2023-07-28T03:36:12;17.20;99.90
42907;DHT22;28552;51.146;6.576;2023-07-28T03:39:13;17.30;99.90
42907;DHT22;28552;51.146;6.576;2023-07-28T03:42:13;17.20;99.90
42907;DHT22;28552;51.146;6.576;2023-07-28T03:45:15;17.30;99.90
42907;DHT22;28552;51.146;6.576;2023-07-28T03:48:16;17.30;99.90
42907;DHT22;28552;51.146;6.576;2023-07-28T03:51:17;17.30;99.90
42907;DHT22;28552;51.146;6.576;2023-07-28T03:54:17;17.30;99.90
42907;DHT22;28552;51.146;6.576;2023-07-28T03:57:18;17.30;99.90
42907;DHT22;28552;51.146;6.576;2023-07-28T04:00:18;17.30;99.90
42907;DHT22;28552;51.146;6.576;2023-07-28T04:03:19;17.30;99.90
42907;DHT22;28552;51.146;6.576;2023-07-28T04:06:39;17.30;99.90
42907;DHT22;28552;51.146;6.576;2023-07-28T04:09:41;17.30;99.90
42907;DHT22;28552;51.146;6.576;2023-07-28T04:12:41;17.30;99.90
42907;DHT22;28552;51.146;6.576;2023-07-28T04:15:42;17.30;99.90
42907;DHT22;28552;51.146;6.576;2023-07-28T04:18:43;17.30;99.90
42907;DHT22;28552;51.146;6.576;2023-07-28T04:21:43;17.30;99.90
42907;DHT22;28552;51.146;6.576;2023-07-28T04:24:44;17.30;99.90
42907;DHT22;28552;51.146;6.576;2023-07-28T04:27:44;17.30;99.90
42907;DHT22;28552;51.146;6.576;2023-07-28T04:30:45;17.40;99.90
42907;DHT22;28552;51.146;6.576;2023-07-28T04:33:46;17.30;99.90
42907;DHT22;28552;51.146;6.576;2023-07-28T04:36:46;17.40;99.90
42907;DHT22;28552;51.146;6.576;2023-07-28T04:39:47;17.40;99.90
42907;DHT22;28552;51.146;6.576;2023-07-28T04:42:47;17.40;99.90
42907;DHT22;28552;51.146;6.576;2023-07-28T04:45:53;17.40;99.90
42907;DHT22;28552;51.146;6.576;2023-07-28T04:48:54;17.40;99.90
42907;DHT22;28552;51.146;6.576;2023-07-28T04:51:55;17.40;99.90
42907;DHT22;28552;51.146;6.576;2023-07-28T04:54:55;17.40;99.90
42907;DHT22;28552;51.146;6.576;2023-07-28T04:57:56;17.40;99.90
42907;DHT22;28552;51.146;6.576;2023-07-28T05:00:56;17.50;99.90
42907;DHT22;28552;51.146;6.576;2023-07-28T05:03:57;17.40;99.90
42907;DHT22;28552;51.146;6.576;2023-07-28T05:06:58;17.50;99.90
42907;DHT22;28552;51.146;6.576;2023-07-28T05:09:58;17.50;99.90
42907;DHT22;28552;51.146;6.576;2023-07-28T05:12:59;17.50;99.90
42907;DHT22;28552;51.146;6.576;2023-07-28T05:15:59;17.50;99.90
42907;DHT22;28552;51.146;6.576;2023-07-28T05:19:00;17.50;99.90
42907;DHT22;28552;51.146;6.576;2023-07-28T05:22:00;17.60;99.90
42907;DHT22;28552;51.146;6.576;2023-07-28T05:25:01;17.50;99.90
42907;DHT22;28552;51.146;6.576;2023-07-28T05:28:02;17.60;99.90
42907;DHT22;28552;51.146;6.576;2023-07-28T05:31:06;17.60;99.90
42907;DHT22;28552;51.146;6.576;2023-07-28T05:34:07;17.60;99.90
42907;DHT22;28552;51.146;6.576;2023-07-28T05:37:07;17.60;99.90
42907;DHT22;28552;51.146;6.576;2023-07-28T05:40:08;17.60;99.90
42907;DHT22;28552;51.146;6.576;2023-07-28T05:43:09;17.70;99.90
42907;DHT22;28552;51.146;6.576;2023-07-28T05:46:10;17.70;99.90
42907;DHT22;28552;51.146;6.576;2023-07-28T05:49:10;17.70;99.90
42907;DHT22;28552;51.146;6.576;2023-07-28T05:52:11;17.70;99.90
42907;DHT22;28552;51.146;6.576;2023-07-28T05:55:11;17.70;99.90
42907;DHT22;28552;51.146;6.576;2023-07-28T05:58:12;17.70;99.90
42907;DHT22;28552;51.146;6.576;2023-07-28T06:01:13;17.70;99.90
42907;DHT22;28552;51.146;6.576;2023-07-28T06:04:13;17.80;99.90
42907;DHT22;28552;51.146;6.576;2023-07-28T06:07:14;17.80;99.90
42907;DHT22;28552;51.146;6.576;2023-07-28T06:10:14;17.70;99.90
42907;DHT22;28552;51.146;6.576;2023-07-28T06:13:15;17.80;99.90
42907;DHT22;28552;51.146;6.576;2023-07-28T06:16:15;17.80;99.90
42907;DHT22;28552;51.146;6.576;2023-07-28T06:19:16;17.80;99.90
42907;DHT22;28552;51.146;6.576;2023-07-28T06:22:23;17.80;99.90
42907;DHT22;28552;51.146;6.576;2023-07-28T06:25:24;17.90;99.90
42907;DHT22;28552;51.146;6.576;2023-07-28T06:28:25;17.90;99.90
42907;DHT22;28552;51.146;6.576;2023-07-28T06:31:26;17.90;99.90
42907;DHT22;28552;51.146;6.576;2023-07-28T06:34:26;17.90;99.90
42907;DHT22;28552;51.146;6.576;2023-07-28T06:37:27;18.00;99.90
42907;DHT22;28552;51.146;6.576;2023-07-28T06:40:28;18.00;99.90
42907;DHT22;28552;51.146;6.576;2023-07-28T06:43:29;18.00;99.90
42907;DHT22;28552;51.146;6.576;2023-07-28T06:46:29;18.00;99.90
42907;DHT22;28552;51.146;6.576;2023-07-28T06:49:30;18.00;99.90
42907;DHT22;28552;51.146;6.576;2023-07-28T06:52:31;18.10;99.90
42907;DHT22;28552;51.146;6.576;2023-07-28T06:55:31;18.10;99.90
42907;DHT22;28552;51.146;6.576;2023-07-28T06:58:32;18.10;99.90
42907;DHT22;28552;51.146;6.576;2023-07-28T07:01:33;18.10;99.90
42907;DHT22;28552;51.146;6.576;2023-07-28T07:04:34;18.10;99.90
42907;DHT22;28552;51.146;6.576;2023-07-28T07:07:34;18.10;99.90
42907;DHT22;28552;51.146;6.576;2023-07-28T07:10:35;18.10;99.90
42907;DHT22;28552;51.146;6.576;2023-07-28T07:13:36;18.10;99.90
42907;DHT22;28552;51.146;6.576;2023-07-28T07:16:36;18.10;99.90
42907;DHT22;28552;51.146;6.576;2023-07-28T07:19:37;18.10;99.90
42907;DHT22;28552;51.146;6.576;2023-07-28T07:22:38;18.20;99.90
42907;DHT22;28552;51.146;6.576;2023-07-28T07:25:39;18.20;99.90
42907;DHT22;28552;51.146;6.576;2023-07-28T07:28:40;18.30;99.90
42907;DHT22;28552;51.146;6.576;2023-07-28T07:31:40;18.30;99.90
42907;DHT22;28552;51.146;6.576;2023-07-28T07:34:41;18.30;99.90
42907;DHT22;28552;51.146;6.576;2023-07-28T07:37:41;18.30;99.90
42907;DHT22;28552;51.146;6.576;2023-07-28T07:40:42;18.40;99.90
42907;DHT22;28552;51.146;6.576;2023-07-28T07:43:42;18.30;99.90
42907;DHT22;28552;51.146;6.576;2023-07-28T07:46:43;18.30;99.90
42907;DHT22;28552;51.146;6.576;2023-07-28T07:49:43;18.40;99.90
42907;DHT22;28552;51.146;6.576;2023-07-28T07:52:44;18.40;99.90
42907;DHT22;28552;51.146;6.576;2023-07-28T07:55:45;18.40;99.90
42907;DHT22;28552;51.146;6.576;2023-07-28T07:58:45;18.40;99.90
42907;DHT22;28552;51.146;6.576;2023-07-28T08:01:46;18.40;99.90
42907;DHT22;28552;51.146;6.576;2023-07-28T08:04:46;18.40;99.90
42907;DHT22;28552;51.146;6.576;2023-07-28T08:07:47;18.40;99.90
42907;DHT22;28552;51.146;6.576;2023-07-28T08:10:48;18.50;99.90
42907;DHT22;28552;51.146;6.576;2023-07-28T08:13:48;18.40;99.90
42907;DHT22;28552;51.146;6.576;2023-07-28T08:16:49;18.50;99.90
42907;DHT22;28552;51.146;6.576;2023-07-28T08:19:50;18.50;99.90
42907;DHT22;28552;51.146;6.576;2023-07-28T08:22:51;18.60;99.90
42907;DHT22;28552;51.146;6.576;2023-07-28T08:25:51;18.60;99.90
42907;DHT22;28552;51.146;6.576;2023-07-28T08:28:53;18.70;99.90
42907;DHT22;28552;51.146;6.576;2023-07-28T08:31:53;18.70;99.90
42907;DHT22;28552;51.146;6.576;2023-07-28T08:34:54;18.80;99.90
42907;DHT22;28552;51.146;6.576;2023-07-28T08:37:55;18.80;99.90
42907;DHT22;28552;51.146;6.576;2023-07-28T08:40:56;18.90;99.90
42907;DHT22;28552;51.146;6.576;2023-07-28T08:43:58;18.90;99.90
42907;DHT22;28552;51.146;6.576;2023-07-28T08:47:02;18.90;99.90
42907;DHT22;28552;51.146;6.576;2023-07-28T08:50:05;18.90;99.90
42907;DHT22;28552;51.146;6.576;2023-07-28T08:53:08;19.00;99.90
42907;DHT22;28552;51.146;6.576;2023-07-28T08:56:09;19.10;99.90
42907;DHT22;28552;51.146;6.576;2023-07-28T08:59:11;19.20;99.90
42907;DHT22;28552;51.146;6.576;2023-07-28T09:02:11;19.30;99.90
42907;DHT22;28552;51.146;6.576;2023-07-28T09:05:20;19.50;99.90
42907;DHT22;28552;51.146;6.576;2023-07-28T09:08:21;19.70;99.90
42907;DHT22;28552;51.146;6.576;2023-07-28T09:11:24;19.90;99.90
42907;DHT22;28552;51.146;6.576;2023-07-28T09:14:27;20.00;99.90
42907;DHT22;28552;51.146;6.576;2023-07-28T09:17:32;20.00;99.90
42907;DHT22;28552;51.146;6.576;2023-07-28T09:20:35;20.00;99.90
42907;DHT22;28552;51.146;6.576;2023-07-28T09:23:36;19.90;99.90
42907;DHT22;28552;51.146;6.576;2023-07-28T09:26:45;20.00;99.90
42907;DHT22;28552;51.146;6.576;2023-07-28T09:29:49;20.00;99.90
42907;DHT22;28552;51.146;6.576;2023-07-28T09:32:52;20.10;99.90
42907;DHT22;28552;51.146;6.576;2023-07-28T09:35:53;20.20;99.90
42907;DHT22;28552;51.146;6.576;2023-07-28T09:38:54;20.20;99.90
42907;DHT22;28552;51.146;6.576;2023-07-28T09:41:56;20.40;99.90
42907;DHT22;28552;51.146;6.576;2023-07-28T09:45:00;20.50;99.90
42907;DHT22;28552;51.146;6.576;2023-07-28T09:48:02;20.70;99.90
42907;DHT22;28552;51.146;6.576;2023-07-28T09:51:06;20.90;99.90
42907;DHT22;28552;51.146;6.576;2023-07-28T09:54:19;21.00;99.90
42907;DHT22;28552;51.146;6.576;2023-07-28T09:57:26;21.00;99.90
42907;DHT22;28552;51.146;6.576;2023-07-28T10:00:28;21.00;99.90
42907;DHT22;28552;51.146;6.576;2023-07-28T10:03:29;20.80;99.90
42907;DHT22;28552;51.146;6.576;2023-07-28T10:06:30;20.70;99.90
42907;DHT22;28552;51.146;6.576;2023-07-28T10:09:32;20.60;99.90
42907;DHT22;28552;51.146;6.576;2023-07-28T10:12:47;20.60;99.90
42907;DHT22;28552;51.146;6.576;2023-07-28T10:15:48;20.80;99.90
42907;DHT22;28552;51.146;6.576;2023-07-28T10:18:54;21.00;99.90
42907;DHT22;28552;51.146;6.576;2023-07-28T10:22:10;21.10;99.90
42907;DHT22;28552;51.146;6.576;2023-07-28T10:25:11;21.10;99.90
42907;DHT22;28552;51.146;6.576;2023-07-28T10:34:59;21.30;99.90
42907;DHT22;28552;51.146;6.576;2023-07-28T10:38:28;21.40;99.90
42907;DHT22;28552;51.146;6.576;2023-07-28T10:41:29;21.50;99.90
42907;DHT22;28552;51.146;6.576;2023-07-28T10:44:31;21.50;99.90
42907;DHT22;28552;51.146;6.576;2023-07-28T10:47:32;21.60;99.90
42907;DHT22;28552;51.146;6.576;2023-07-28T10:50:33;21.70;99.90
42907;DHT22;28552;51.146;6.576;2023-07-28T10:53:34;21.60;99.90
42907;DHT22;28552;51.146;6.576;2023-07-28T10:56:35;21.60;99.90
42907;DHT22;28552;51.146;6.576;2023-07-28T10:59:35;21.70;99.90
42907;DHT22;28552;51.146;6.576;2023-07-28T11:02:42;21.80;99.90
42907;DHT22;28552;51.146;6.576;2023-07-28T11:05:43;22.00;99.90
42907;DHT22;28552;51.146;6.576;2023-07-28T11:08:44;22.00;99.90
42907;DHT22;28552;51.146;6.576;2023-07-28T11:11:45;22.10;99.90
42907;DHT22;28552;51.146;6.576;2023-07-28T11:14:46;22.20;99.90
42907;DHT22;28552;51.146;6.576;2023-07-28T11:17:48;22.30;99.90
42907;DHT22;28552;51.146;6.576;2023-07-28T11:20:49;22.40;99.90
42907;DHT22;28552;51.146;6.576;2023-07-28T11:23:49;22.50;99.90
42907;DHT22;28552;51.146;6.576;2023-07-28T11:26:50;22.50;99.90
42907;DHT22;28552;51.146;6.576;2023-07-28T11:29:51;22.50;99.90
42907;DHT22;28552;51.146;6.576;2023-07-28T11:32:52;22.40;99.90
42907;DHT22;28552;51.146;6.576;2023-07-28T11:35:53;22.30;99.90
42907;DHT22;28552;51.146;6.576;2023-07-28T11:38:56;22.20;99.90
42907;DHT22;28552;51.146;6.576;2023-07-28T11:41:57;22.10;99.90
42907;DHT22;28552;51.146;6.576;2023-07-28T11:44:58;22.10;99.90
42907;DHT22;28552;51.146;6.576;2023-07-28T11:48:02;22.30;99.90
42907;DHT22;28552;51.146;6.576;2023-07-28T11:51:03;22.50;99.90
42907;DHT22;28552;51.146;6.576;2023-07-28T11:54:03;22.60;99.90
42907;DHT22;28552;51.146;6.576;2023-07-28T11:57:07;22.70;99.90
42907;DHT22;28552;51.146;6.576;2023-07-28T12:00:09;22.70;99.90
42907;DHT22;28552;51.146;6.576;2023-07-28T12:03:11;22.70;99.90
42907;DHT22;28552;51.146;6.576;2023-07-28T12:06:12;22.70;99.90
42907;DHT22;28552;51.146;6.576;2023-07-28T12:09:13;22.60;99.90
42907;DHT22;28552;51.146;6.576;2023-07-28T12:12:14;22.70;99.90
42907;DHT22;28552;51.146;6.576;2023-07-28T12:15:32;22.70;99.90
42907;DHT22;28552;51.146;6.576;2023-07-28T12:18:33;22.80;99.90
42907;DHT22;28552;51.146;6.576;2023-07-28T12:21:33;22.80;99.90
42907;DHT22;28552;51.146;6.576;2023-07-28T12:24:34;22.80;99.90
42907;DHT22;28552;51.146;6.576;2023-07-28T12:27:34;22.80;99.90
42907;DHT22;28552;51.146;6.576;2023-07-28T12:30:36;22.70;99.90
42907;DHT22;28552;51.146;6.576;2023-07-28T12:33:37;22.70;99.90
42907;DHT22;28552;51.146;6.576;2023-07-28T12:36:37;22.60;99.90
42907;DHT22;28552;51.146;6.576;2023-07-28T12:39:38;22.60;99.90
42907;DHT22;28552;51.146;6.576;2023-07-28T12:42:39;22.40;99.90
42907;DHT22;28552;51.146;6.576;2023-07-28T12:45:40;22.20;99.90
42907;DHT22;28552;51.146;6.576;2023-07-28T12:48:41;22.00;99.90
42907;DHT22;28552;51.146;6.576;2023-07-28T12:51:42;21.70;99.90
42907;DHT22;28552;51.146;6.576;2023-07-28T12:54:42;21.30;99.90
42907;DHT22;28552;51.146;6.576;2023-07-28T12:57:44;20.90;99.90
42907;DHT22;28552;51.146;6.576;2023-07-28T13:00:44;20.40;99.90
42907;DHT22;28552;51.146;6.576;2023-07-28T13:03:45;20.00;99.90
42907;DHT22;28552;51.146;6.576;2023-07-28T13:06:46;19.80;99.90
42907;DHT22;28552;51.146;6.576;2023-07-28T13:09:46;19.70;99.90
42907;DHT22;28552;51.146;6.576;2023-07-28T13:12:47;19.60;99.90
42907;DHT22;28552;51.146;6.576;2023-07-28T13:15:48;19.60;99.90
42907;DHT22;28552;51.146;6.576;2023-07-28T13:18:48;19.70;99.90
42907;DHT22;28552;51.146;6.576;2023-07-28T13:21:49;19.80;99.90
42907;DHT22;28552;51.146;6.576;2023-07-28T13:24:49;19.90;99.90
42907;DHT22;28552;51.146;6.576;2023-07-28T13:27:50;20.00;99.90
42907;DHT22;28552;51.146;6.576;2023-07-28T13:30:51;20.00;99.90
42907;DHT22;28552;51.146;6.576;2023-07-28T13:33:52;19.90;99.90
42907;DHT22;28552;51.146;6.576;2023-07-28T13:36:52;19.90;99.90
42907;DHT22;28552;51.146;6.576;2023-07-28T13:39:53;19.90;99.90
42907;DHT22;28552;51.146;6.576;2023-07-28T13:42:54;20.10;99.90
42907;DHT22;28552;51.146;6.576;2023-07-28T13:45:54;20.20;99.90
42907;DHT22;28552;51.146;6.576;2023-07-28T13:48:55;20.20;99.90
42907;DHT22;28552;51.146;6.576;2023-07-28T13:51:56;20.30;99.90
42907;DHT22;28552;51.146;6.576;2023-07-28T13:54:56;20.30;99.90
42907;DHT22;28552;51.146;6.576;2023-07-28T13:57:57;20.40;99.90
42907;DHT22;28552;51.146;6.576;2023-07-28T14:00:57;20.40;99.90
42907;DHT22;28552;51.146;6.576;2023-07-28T14:03:58;20.40;99.90
42907;DHT22;28552;51.146;6.576;2023-07-28T14:06:58;20.40;99.90
42907;DHT22;28552;51.146;6.576;2023-07-28T14:10:00;20.30;99.90
42907;DHT22;28552;51.146;6.576;2023-07-28T14:13:00;20.30;99.90
42907;DHT22;28552;51.146;6.576;2023-07-28T14:16:01;20.20;99.90
42907;DHT22;28552;51.146;6.576;2023-07-28T14:19:02;20.20;99.90
42907;DHT22;28552;51.146;6.576;2023-07-28T14:22:02;20.30;99.90
42907;DHT22;28552;51.146;6.576;2023-07-28T14:25:03;20.50;99.90
42907;DHT22;28552;51.146;6.576;2023-07-28T14:28:04;20.60;99.90
42907;DHT22;28552;51.146;6.576;2023-07-28T14:31:05;20.60;99.90
42907;DHT22;28552;51.146;6.576;2023-07-28T14:34:06;20.60;99.90
42907;DHT22;28552;51.146;6.576;2023-07-28T14:37:07;20.70;99.90
42907;DHT22;28552;51.146;6.576;2023-07-28T14:40:08;20.70;99.90
42907;DHT22;28552;51.146;6.576;2023-07-28T14:43:09;20.70;99.90
42907;DHT22;28552;51.146;6.576;2023-07-28T14:46:10;20.70;99.90
42907;DHT22;28552;51.146;6.576;2023-07-28T14:49:11;20.70;99.90
42907;DHT22;28552;51.146;6.576;2023-07-28T14:52:12;20.70;99.90
42907;DHT22;28552;51.146;6.576;2023-07-28T14:55:12;20.70;99.90
42907;DHT22;28552;51.146;6.576;2023-07-28T14:58:13;20.70;99.90
42907;DHT22;28552;51.146;6.576;2023-07-28T15:01:14;20.70;99.90
42907;DHT22;28552;51.146;6.576;2023-07-28T15:04:14;20.70;99.90
42907;DHT22;28552;51.146;6.576;2023-07-28T15:07:16;20.60;99.90
42907;DHT22;28552;51.146;6.576;2023-07-28T15:10:18;20.60;99.90
42907;DHT22;28552;51.146;6.576;2023-07-28T15:13:19;20.60;99.90
42907;DHT22;28552;51.146;6.576;2023-07-28T15:16:20;20.60;99.90
42907;DHT22;28552;51.146;6.576;2023-07-28T15:19:21;20.50;99.90
42907;DHT22;28552;51.146;6.576;2023-07-28T15:22:21;20.40;99.90
42907;DHT22;28552;51.146;6.576;2023-07-28T15:25:22;20.30;99.90
42907;DHT22;28552;51.146;6.576;2023-07-28T15:28:23;20.30;99.90
42907;DHT22;28552;51.146;6.576;2023-07-28T15:31:24;20.20;99.90
42907;DHT22;28552;51.146;6.576;2023-07-28T15:34:25;20.20;99.90
42907;DHT22;28552;51.146;6.576;2023-07-28T15:37:25;20.20;99.90
42907;DHT22;28552;51.146;6.576;2023-07-28T15:40:26;20.30;99.90
42907;DHT22;28552;51.146;6.576;2023-07-28T15:43:26;20.30;99.90
42907;DHT22;28552;51.146;6.576;2023-07-28T15:46:27;20.40;99.90
42907;DHT22;28552;51.146;6.576;2023-07-28T15:49:28;20.50;99.90
42907;DHT22;28552;51.146;6.576;2023-07-28T15:52:28;20.70;99.90
42907;DHT22;28552;51.146;6.576;2023-07-28T15:55:29;20.80;99.90
42907;DHT22;28552;51.146;6.576;2023-07-28T15:58:31;20.90;99.90
42907;DHT22;28552;51.146;6.576;2023-07-28T16:01:32;21.10;99.90
42907;DHT22;28552;51.146;6.576;2023-07-28T16:04:32;21.30;99.90
42907;DHT22;28552;51.146;6.576;2023-07-28T16:07:33;21.50;99.90
42907;DHT22;28552;51.146;6.576;2023-07-28T16:10:34;21.60;99.90
42907;DHT22;28552;51.146;6.576;2023-07-28T16:13:35;21.70;99.90
42907;DHT22;28552;51.146;6.576;2023-07-28T16:16:35;21.90;99.90
42907;DHT22;28552;51.146;6.576;2023-07-28T16:19:36;22.00;99.90
42907;DHT22;28552;51.146;6.576;2023-07-28T16:22:37;22.10;99.90
42907;DHT22;28552;51.146;6.576;2023-07-28T16:25:38;22.20;99.90
42907;DHT22;28552;51.146;6.576;2023-07-28T16:28:39;22.20;99.90
42907;DHT22;28552;51.146;6.576;2023-07-28T16:31:40;22.40;99.90
42907;DHT22;28552;51.146;6.576;2023-07-28T16:34:40;22.40;99.90
42907;DHT22;28552;51.146;6.576;2023-07-28T16:37:41;22.40;99.90
42907;DHT22;28552;51.146;6.576;2023-07-28T16:40:41;22.50;99.90
42907;DHT22;28552;51.146;6.576;2023-07-28T16:43:42;22.60;99.90
42907;DHT22;28552;51.146;6.576;2023-07-28T16:46:42;22.60;99.90
42907;DHT22;28552;51.146;6.576;2023-07-28T16:49:43;22.50;99.90
42907;DHT22;28552;51.146;6.576;2023-07-28T16:52:43;22.50;99.90
42907;DHT22;28552;51.146;6.576;2023-07-28T16:55:44;22.50;99.90
42907;DHT22;28552;51.146;6.576;2023-07-28T16:58:44;22.70;99.90
42907;DHT22;28552;51.146;6.576;2023-07-28T17:01:45;22.70;99.90
42907;DHT22;28552;51.146;6.576;2023-07-28T17:04:46;22.70;99.90
42907;DHT22;28552;51.146;6.576;2023-07-28T17:07:46;22.70;99.90
42907;DHT22;28552;51.146;6.576;2023-07-28T17:10:47;22.70;99.90
42907;DHT22;28552;51.146;6.576;2023-07-28T17:13:48;22.70;99.90
42907;DHT22;28552;51.146;6.576;2023-07-28T17:16:48;22.80;99.90
42907;DHT22;28552;51.146;6.576;2023-07-28T17:19:49;23.00;99.90
42907;DHT22;28552;51.146;6.576;2023-07-28T17:22:50;23.10;99.90
42907;DHT22;28552;51.146;6.576;2023-07-28T17:25:50;23.30;99.90
42907;DHT22;28552;51.146;6.576;2023-07-28T17:28:51;23.30;99.90
42907;DHT22;28552;51.146;6.576;2023-07-28T17:31:52;23.40;99.90
42907;DHT22;28552;51.146;6.576;2023-07-28T17:34:52;23.50;99.90
42907;DHT22;28552;51.146;6.576;2023-07-28T17:37:53;23.50;99.90
42907;DHT22;28552;51.146;6.576;2023-07-28T17:40:54;23.50;99.90
42907;DHT22;28552;51.146;6.576;2023-07-28T17:43:54;23.50;99.90
42907;DHT22;28552;51.146;6.576;2023-07-28T17:46:55;23.50;99.90
42907;DHT22;28552;51.146;6.576;2023-07-28T17:49:58;23.50;99.90
42907;DHT22;28552;51.146;6.576;2023-07-28T17:52:59;23.50;99.90
42907;DHT22;28552;51.146;6.576;2023-07-28T17:56:00;23.40;99.90
42907;DHT22;28552;51.146;6.576;2023-07-28T17:59:00;23.30;99.90
42907;DHT22;28552;51.146;6.576;2023-07-28T18:02:01;23.20;99.90
42907;DHT22;28552;51.146;6.576;2023-07-28T18:05:02;23.20;99.90
42907;DHT22;28552;51.146;6.576;2023-07-28T18:08:05;23.20;99.90
42907;DHT22;28552;51.146;6.576;2023-07-28T18:11:11;23.20;99.90
42907;DHT22;28552;51.146;6.576;2023-07-28T18:14:12;23.20;99.90
42907;DHT22;28552;51.146;6.576;2023-07-28T18:17:12;23.10;99.90
42907;DHT22;28552;51.146;6.576;2023-07-28T18:20:13;23.10;99.90
42907;DHT22;28552;51.146;6.576;2023-07-28T18:23:14;23.10;99.90
42907;DHT22;28552;51.146;6.576;2023-07-28T18:26:14;23.10;99.90
42907;DHT22;28552;51.146;6.576;2023-07-28T18:29:15;23.00;99.90
42907;DHT22;28552;51.146;6.576;2023-07-28T18:32:16;23.00;99.90
42907;DHT22;28552;51.146;6.576;2023-07-28T18:35:16;22.90;99.90
42907;DHT22;28552;51.146;6.576;2023-07-28T18:38:17;22.70;99.90
42907;DHT22;28552;51.146;6.576;2023-07-28T18:41:17;22.60;99.90
42907;DHT22;28552;51.146;6.576;2023-07-28T18:44:18;22.50;99.90
42907;DHT22;28552;51.146;6.576;2023-07-28T18:47:18;22.40;99.90
42907;DHT22;28552;51.146;6.576;2023-07-28T18:50:20;22.20;99.90
42907;DHT22;28552;51.146;6.576;2023-07-28T18:53:21;22.10;99.90
42907;DHT22;28552;51.146;6.576;2023-07-28T18:56:21;22.00;99.90
42907;DHT22;28552;51.146;6.576;2023-07-28T18:59:22;21.90;99.90
42907;DHT22;28552;51.146;6.576;2023-07-28T19:02:22;21.80;99.90
42907;DHT22;28552;51.146;6.576;2023-07-28T19:05:23;21.70;99.90
42907;DHT22;28552;51.146;6.576;2023-07-28T19:08:24;21.60;99.90
42907;DHT22;28552;51.146;6.576;2023-07-28T19:11:24;21.50;99.90